createdAt,value
2022-08-01T00:01:35.849Z,31.90
2022-08-01T00:04:10.080Z,32.10
2022-08-01T00:06:46.227Z,32.50
2022-08-01T00:09:24.252Z,32.80
2022-08-01T00:12:00.076Z,32.60
2022-08-01T00:14:35.735Z,32.40
2022-08-01T00:17:09.409Z,32.70
2022-08-01T00:19:44.516Z,32.60
2022-08-01T00:22:20.626Z,32.70
2022-08-01T00:24:54.551Z,32.40
2022-08-01T00:27:28.240Z,32.10
2022-08-01T00:30:12.382Z,32.00
2022-08-01T00:32:49.179Z,31.80
2022-08-01T00:35:23.140Z,31.60
2022-08-01T00:38:18.528Z,31.50
2022-08-01T00:40:52.687Z,31.30
2022-08-01T00:43:26.439Z,31.20
2022-08-01T00:46:00.403Z,30.90
2022-08-01T00:48:34.762Z,30.80
2022-08-01T00:51:17.482Z,30.70
2022-08-01T00:53:53.547Z,30.50
2022-08-01T00:56:30.685Z,30.20
2022-08-01T00:59:04.552Z,30.20
2022-08-01T01:01:39.574Z,30.20
2022-08-01T01:04:13.531Z,30.00
2022-08-01T01:06:56.270Z,29.80
2022-08-01T01:09:43.431Z,29.70
2022-08-01T01:12:25.991Z,29.50
2022-08-01T01:15:06.695Z,29.60
2022-08-01T01:17:51.010Z,29.40
2022-08-01T01:20:29.693Z,29.40
2022-08-01T01:23:37.554Z,29.40
2022-08-01T01:26:27.129Z,29.40
2022-08-01T01:29:18.141Z,29.30
2022-08-01T01:31:57.021Z,29.30
2022-08-01T01:34:33.176Z,29.30
2022-08-01T01:37:09.581Z,29.20
2022-08-01T01:39:45.491Z,29.10
2022-08-01T01:42:30.569Z,29.20
2022-08-01T01:45:08.359Z,29.10
2022-08-01T01:47:43.555Z,29.20
2022-08-01T01:50:18.773Z,29.20
2022-08-01T01:52:54.192Z,29.10
2022-08-01T01:55:28.919Z,29.10
2022-08-01T01:58:03.795Z,29.10
2022-08-01T02:00:54.510Z,29.10
2022-08-01T02:03:29.753Z,29.20
2022-08-01T02:06:03.992Z,29.10
2022-08-01T02:08:40.353Z,29.30
2022-08-01T02:11:31.731Z,29.30
2022-08-01T02:14:07.584Z,29.20
2022-08-01T02:16:46.863Z,29.20
2022-08-01T02:19:22.909Z,29.30
2022-08-01T02:22:03.350Z,29.30
2022-08-01T02:24:45.656Z,29.30
2022-08-01T02:27:22.024Z,29.30
2022-08-01T02:30:02.172Z,29.30
2022-08-01T02:32:44.292Z,29.20
2022-08-01T02:35:25.073Z,29.00
2022-08-01T02:38:00.119Z,29.00
2022-08-01T02:40:37.298Z,29.00
2022-08-01T02:43:13.129Z,28.90
2022-08-01T02:45:50.612Z,29.00
2022-08-01T02:48:28.386Z,29.00
2022-08-01T02:51:05.414Z,28.90
2022-08-01T02:53:44.655Z,29.10
2022-08-01T02:56:20.356Z,29.20
2022-08-01T02:58:54.890Z,29.30
2022-08-01T03:01:30.543Z,29.30
2022-08-01T03:04:09.189Z,29.40
2022-08-01T03:06:45.014Z,29.40
2022-08-01T03:09:19.866Z,29.40
2022-08-01T03:11:54.909Z,29.50
2022-08-01T03:14:32.775Z,29.40
2022-08-01T03:17:08.652Z,29.50
2022-08-01T03:19:49.649Z,29.60
2022-08-01T03:22:28.384Z,29.50
2022-08-01T03:25:03.978Z,29.50
2022-08-01T03:27:37.526Z,29.40
2022-08-01T03:30:12.659Z,29.60
2022-08-01T03:32:47.152Z,29.80
2022-08-01T03:38:16.225Z,29.60
2022-08-01T03:40:54.410Z,29.60
2022-08-01T03:43:40.755Z,29.90
2022-08-01T03:46:18.607Z,30.00
2022-08-01T03:48:55.776Z,30.20
2022-08-01T03:51:34.531Z,30.30
2022-08-01T03:54:08.909Z,30.40
2022-08-01T03:56:43.436Z,30.50
2022-08-01T03:59:26.889Z,30.60
2022-08-01T04:02:03.126Z,30.70
2022-08-01T04:04:37.570Z,30.70
2022-08-01T04:07:28.673Z,30.80
2022-08-01T04:10:02.073Z,30.90
2022-08-01T04:12:36.358Z,30.80
2022-08-01T04:15:11.052Z,31.10
2022-08-01T04:17:44.957Z,31.20
2022-08-01T04:20:19.365Z,31.20
2022-08-01T04:22:55.280Z,31.30
2022-08-01T04:25:34.802Z,31.20
2022-08-01T04:28:13.521Z,31.40
2022-08-01T04:30:48.521Z,31.30
2022-08-01T04:33:24.514Z,31.60
2022-08-01T04:36:03.672Z,31.70
2022-08-01T04:38:41.544Z,31.40
2022-08-01T04:41:17.355Z,31.40
2022-08-01T04:43:50.331Z,31.70
2022-08-01T04:46:23.944Z,31.90
2022-08-01T04:48:59.149Z,31.50
2022-08-01T04:51:32.957Z,31.70
2022-08-01T04:54:12.735Z,31.80
2022-08-01T04:59:45.070Z,32.30
2022-08-01T05:02:20.700Z,32.70
2022-08-01T05:04:55.294Z,32.70
2022-08-01T05:07:29.251Z,32.50
2022-08-01T05:10:05.707Z,32.50
2022-08-01T05:12:40.113Z,32.70
2022-08-01T05:15:15.612Z,32.90
2022-08-01T05:17:49.020Z,33.00
2022-08-01T05:20:22.515Z,32.80
2022-08-01T05:22:55.548Z,32.70
2022-08-01T05:25:57.438Z,33.00
2022-08-01T05:28:33.537Z,33.00
2022-08-01T05:31:09.099Z,32.80
2022-08-01T05:33:43.937Z,33.20
2022-08-01T05:36:20.422Z,33.70
2022-08-01T05:38:54.499Z,33.50
2022-08-01T05:41:30.798Z,33.10
2022-08-01T05:44:04.997Z,33.30
2022-08-01T05:46:40.527Z,33.20
2022-08-01T05:49:14.735Z,33.10
2022-08-01T05:51:48.542Z,32.90
2022-08-01T05:54:25.002Z,32.70
2022-08-01T05:57:06.305Z,32.70
2022-08-01T05:59:40.392Z,32.90
2022-08-01T06:02:13.962Z,32.80
2022-08-01T06:04:47.439Z,32.80
2022-08-01T06:07:21.655Z,32.80
2022-08-01T06:09:55.311Z,32.70
2022-08-01T06:12:38.907Z,32.60
2022-08-01T06:15:13.837Z,32.40
2022-08-01T06:17:47.649Z,32.50
2022-08-01T06:20:21.332Z,32.30
2022-08-01T06:22:55.213Z,32.30
2022-08-01T06:25:30.310Z,32.50
2022-08-01T06:28:06.187Z,32.40
2022-08-01T06:30:39.830Z,32.30
2022-08-01T06:33:13.516Z,32.50
2022-08-01T06:35:47.924Z,32.50
2022-08-01T06:41:09.548Z,32.40
2022-08-01T06:43:45.779Z,32.20
2022-08-01T06:46:19.995Z,32.20
2022-08-01T06:48:57.419Z,32.10
2022-08-01T06:51:33.291Z,32.00
2022-08-01T06:54:07.371Z,31.90
2022-08-01T06:56:41.318Z,31.80
2022-08-01T06:59:30.334Z,31.70
2022-08-01T07:02:04.815Z,31.70
2022-08-01T07:04:39.378Z,31.50
2022-08-01T07:07:13.715Z,31.50
2022-08-01T07:09:46.999Z,31.50
2022-08-01T07:12:20.749Z,31.40
2022-08-01T07:14:56.626Z,31.40
2022-08-01T07:17:30.268Z,31.30
2022-08-01T07:20:04.733Z,31.40
2022-08-01T07:22:39.203Z,31.30
2022-08-01T07:25:17.855Z,31.10
2022-08-01T07:27:51.338Z,30.90
2022-08-01T07:30:26.838Z,31.10
2022-08-01T07:33:00.801Z,31.10
2022-08-01T07:35:34.687Z,31.00
2022-08-01T07:38:12.580Z,30.70
2022-08-01T07:40:47.946Z,30.70
2022-08-01T07:43:21.597Z,30.80
2022-08-01T07:45:57.100Z,30.80
2022-08-01T07:48:31.237Z,30.70
2022-08-01T07:51:11.228Z,30.60
2022-08-01T07:53:45.414Z,30.60
2022-08-01T07:56:19.725Z,30.70
2022-08-01T07:58:53.638Z,30.70
2022-08-01T08:01:29.083Z,30.90
2022-08-01T08:04:04.414Z,31.00
2022-08-01T08:06:38.685Z,30.90
2022-08-01T08:09:12.540Z,30.70
2022-08-01T08:11:48.321Z,31.00
2022-08-01T08:17:13.713Z,30.90
2022-08-01T08:19:47.083Z,31.10
2022-08-01T08:22:20.524Z,31.20
2022-08-01T08:24:54.190Z,31.30
2022-08-01T08:27:35.444Z,31.30
2022-08-01T08:30:14.863Z,31.10
2022-08-01T08:32:50.732Z,31.20
2022-08-01T08:35:40.448Z,31.30
2022-08-01T08:38:17.523Z,31.30
2022-08-01T08:40:52.529Z,31.30
2022-08-01T08:43:27.184Z,31.30
2022-08-01T08:46:01.401Z,31.30
2022-08-01T08:48:37.806Z,31.30
2022-08-01T08:51:13.135Z,31.40
2022-08-01T08:53:48.620Z,31.40
2022-08-01T08:56:23.255Z,31.40
2022-08-01T08:58:57.602Z,31.30
2022-08-01T09:01:31.725Z,31.40
2022-08-01T09:04:08.601Z,31.30
2022-08-01T09:06:45.445Z,31.40
2022-08-01T09:09:18.873Z,31.40
2022-08-01T09:12:07.255Z,31.70
2022-08-01T09:14:52.187Z,31.50
2022-08-01T09:17:26.340Z,31.40
2022-08-01T09:20:02.435Z,31.50
2022-08-01T09:22:39.622Z,31.60
2022-08-01T09:25:14.783Z,31.70
2022-08-01T09:27:49.277Z,31.70
2022-08-01T09:30:26.238Z,31.70
2022-08-01T09:33:06.418Z,31.70
2022-08-01T09:36:01.484Z,31.70
2022-08-01T09:38:35.230Z,31.90
2022-08-01T09:41:09.757Z,32.00
2022-08-01T09:43:54.813Z,32.00
2022-08-01T09:46:29.067Z,31.90
2022-08-01T09:49:07.441Z,31.90
2022-08-01T09:52:00.113Z,31.80
2022-08-01T09:54:36.181Z,32.00
2022-08-01T09:57:18.478Z,31.90
2022-08-01T09:59:58.808Z,31.80
2022-08-01T10:02:36.655Z,31.80
2022-08-01T10:05:21.123Z,31.70
2022-08-01T10:08:08.229Z,31.70
2022-08-01T10:10:42.055Z,31.70
2022-08-01T10:13:20.214Z,31.60
2022-08-01T10:15:58.693Z,31.70
2022-08-01T10:18:33.130Z,31.60
2022-08-01T10:21:10.796Z,31.60
2022-08-01T10:23:47.496Z,31.40
2022-08-01T10:26:25.092Z,31.30
2022-08-01T10:29:02.309Z,31.20
2022-08-01T10:31:37.426Z,31.10
2022-08-01T10:34:12.197Z,31.20
2022-08-01T10:36:46.971Z,31.10
2022-08-01T10:39:24.156Z,31.10
2022-08-01T10:42:00.325Z,31.00
2022-08-01T10:44:35.349Z,30.90
2022-08-01T10:47:16.154Z,30.90
2022-08-01T10:49:58.644Z,30.70
2022-08-01T10:52:39.150Z,30.70
2022-08-01T10:55:15.596Z,30.60
2022-08-01T10:57:53.021Z,30.50
2022-08-01T11:00:27.124Z,30.40
2022-08-01T11:03:05.527Z,30.50
2022-08-01T11:05:42.896Z,30.40
2022-08-01T11:08:28.428Z,30.30
2022-08-01T11:11:09.565Z,30.20
2022-08-01T11:14:14.108Z,30.20
2022-08-01T11:16:49.981Z,30.10
2022-08-01T11:19:23.846Z,30.00
2022-08-01T11:22:08.183Z,29.90
2022-08-01T11:25:02.542Z,29.90
2022-08-01T11:27:39.167Z,29.90
2022-08-01T11:30:30.454Z,29.80
2022-08-01T11:33:10.744Z,29.80
2022-08-01T11:36:31.979Z,29.80
2022-08-01T11:39:24.536Z,29.70
2022-08-01T11:41:59.136Z,29.70
2022-08-01T11:44:52.108Z,29.70
2022-08-01T11:47:49.759Z,29.80
2022-08-01T11:50:41.357Z,29.90
2022-08-01T11:53:17.196Z,29.70
2022-08-01T11:55:57.213Z,29.60
2022-08-01T11:58:34.486Z,29.40
2022-08-01T12:01:24.657Z,29.30
2022-08-01T12:04:02.673Z,29.30
2022-08-01T12:06:36.848Z,29.40
2022-08-01T12:09:25.531Z,29.40
2022-08-01T12:11:59.505Z,29.30
2022-08-01T12:14:36.677Z,29.40
2022-08-01T12:17:12.798Z,29.50
2022-08-01T12:19:47.311Z,29.60
2022-08-01T12:22:21.293Z,29.80
2022-08-01T12:24:54.701Z,29.70
2022-08-01T12:27:33.056Z,29.70
2022-08-01T12:30:10.048Z,29.60
2022-08-01T12:32:47.112Z,29.50
2022-08-01T12:35:22.229Z,29.60
2022-08-01T12:37:57.921Z,29.70
2022-08-01T12:40:32.442Z,29.60
2022-08-01T12:43:07.403Z,29.50
2022-08-01T12:45:56.963Z,29.40
2022-08-01T12:48:37.442Z,29.40
2022-08-01T12:51:12.304Z,29.40
2022-08-01T12:53:45.619Z,29.40
2022-08-01T12:56:19.804Z,29.50
2022-08-01T12:58:55.979Z,29.40
2022-08-01T13:01:33.815Z,29.20
2022-08-01T13:04:10.110Z,29.20
2022-08-01T13:06:44.176Z,29.10
2022-08-01T13:09:20.470Z,29.10
2022-08-01T13:12:10.947Z,29.10
2022-08-01T13:14:47.148Z,29.10
2022-08-01T13:17:37.764Z,29.00
2022-08-01T13:20:14.654Z,28.90
2022-08-01T13:22:47.881Z,28.90
2022-08-01T13:25:26.893Z,28.90
2022-08-01T13:28:22.081Z,28.90
2022-08-01T13:31:00.965Z,28.90
2022-08-01T13:33:45.671Z,28.90
2022-08-01T13:36:31.804Z,28.80
2022-08-01T13:39:49.599Z,28.80
2022-08-01T13:42:25.873Z,28.80
2022-08-01T13:45:00.023Z,28.80
2022-08-01T13:47:33.394Z,28.90
2022-08-01T13:50:09.145Z,28.80
2022-08-01T13:52:46.304Z,28.80
2022-08-01T13:55:34.980Z,28.60
2022-08-01T13:58:10.421Z,28.60
2022-08-01T14:00:44.012Z,28.60
2022-08-01T14:03:19.236Z,28.60
2022-08-01T14:05:58.532Z,28.60
2022-08-01T14:09:17.317Z,28.70
2022-08-01T14:11:52.107Z,28.60
2022-08-01T14:14:26.204Z,28.60
2022-08-01T14:17:05.295Z,28.70
2022-08-01T14:19:42.268Z,28.80
2022-08-01T14:22:20.018Z,28.80
2022-08-01T14:25:00.821Z,28.90
2022-08-01T14:27:39.268Z,28.90
2022-08-01T14:30:14.806Z,28.80
2022-08-01T14:32:50.605Z,28.80
2022-08-01T14:35:24.953Z,28.80
2022-08-01T14:38:00.692Z,28.80
2022-08-01T14:40:37.994Z,28.70
2022-08-01T14:43:24.957Z,28.70
2022-08-01T14:46:02.102Z,28.60
2022-08-01T14:48:36.825Z,28.50
2022-08-01T14:51:11.754Z,28.50
2022-08-01T14:53:50.767Z,28.50
2022-08-01T14:56:27.103Z,28.50
2022-08-01T14:59:01.953Z,28.40
2022-08-01T15:01:37.129Z,28.40
2022-08-01T15:04:11.408Z,28.50
2022-08-01T15:06:47.803Z,28.30
2022-08-01T15:09:22.361Z,28.40
2022-08-01T15:11:58.322Z,28.40
2022-08-01T15:14:47.948Z,28.50
2022-08-01T15:17:23.389Z,28.50
2022-08-01T15:19:59.650Z,28.50
2022-08-01T15:22:34.216Z,28.60
2022-08-01T15:25:08.550Z,28.60
2022-08-01T15:27:45.496Z,28.60
2022-08-01T15:30:23.353Z,28.50
2022-08-01T15:33:01.649Z,28.50
2022-08-01T15:35:35.897Z,28.50
2022-08-01T15:38:10.941Z,28.50
2022-08-01T15:40:44.757Z,28.60
2022-08-01T15:43:21.060Z,28.70
2022-08-01T15:45:55.937Z,28.60
2022-08-01T15:48:29.902Z,28.60
2022-08-01T15:51:04.694Z,28.60
2022-08-01T15:53:40.037Z,28.50
2022-08-01T15:56:14.590Z,28.60
2022-08-01T15:58:50.418Z,28.60
2022-08-01T16:01:25.587Z,28.50
2022-08-01T16:04:00.496Z,28.50
2022-08-01T16:06:34.514Z,28.50
2022-08-01T16:09:18.347Z,28.40
2022-08-01T16:11:53.605Z,28.30
2022-08-01T16:14:29.478Z,28.20
2022-08-01T16:17:04.092Z,28.20
2022-08-01T16:19:38.654Z,28.20
2022-08-01T16:22:12.564Z,28.30
2022-08-01T16:24:47.608Z,28.30
2022-08-01T16:27:26.859Z,28.30
2022-08-01T16:30:03.457Z,28.20
2022-08-01T16:32:39.751Z,28.20
2022-08-01T16:35:22.034Z,28.20
2022-08-01T16:37:58.542Z,28.10
2022-08-01T16:40:46.253Z,28.10
2022-08-01T16:43:21.543Z,28.10
2022-08-01T16:45:58.365Z,28.10
2022-08-01T16:48:32.447Z,28.20
2022-08-01T16:51:06.357Z,28.20
2022-08-01T16:53:40.345Z,28.10
2022-08-01T16:56:13.806Z,28.10
2022-08-01T16:58:47.900Z,28.10
2022-08-01T17:02:00.135Z,28.00
2022-08-01T17:04:19.929Z,28.00
2022-08-01T17:06:54.066Z,27.90
2022-08-01T17:09:31.292Z,27.90
2022-08-01T17:12:05.108Z,27.90
2022-08-01T17:14:53.801Z,27.90
2022-08-01T17:17:29.672Z,27.80
2022-08-01T17:20:04.080Z,27.80
2022-08-01T17:22:38.220Z,27.90
2022-08-01T17:25:15.942Z,27.80
2022-08-01T17:28:04.681Z,27.80
2022-08-01T17:30:58.521Z,27.90
2022-08-01T17:33:44.644Z,27.90
2022-08-01T17:36:22.716Z,27.90
2022-08-01T17:39:01.116Z,27.90
2022-08-01T17:41:34.936Z,27.90
2022-08-01T17:44:09.298Z,27.80
2022-08-01T17:46:42.581Z,27.80
2022-08-01T17:49:33.380Z,27.70
2022-08-01T17:52:11.599Z,27.70
2022-08-01T17:54:45.707Z,27.50
2022-08-01T17:57:19.553Z,27.40
2022-08-01T17:59:54.092Z,27.40
2022-08-01T18:02:28.244Z,27.20
2022-08-01T18:08:06.263Z,27.10
2022-08-01T18:10:40.336Z,27.00
2022-08-01T18:13:17.818Z,27.00
2022-08-01T18:15:54.769Z,26.90
2022-08-01T18:18:33.600Z,26.80
2022-08-01T18:21:11.372Z,26.60
2022-08-01T18:23:51.405Z,26.20
2022-08-01T18:26:26.745Z,26.10
2022-08-01T18:29:00.003Z,25.90
2022-08-01T18:31:33.529Z,25.90
2022-08-01T18:34:07.517Z,25.80
2022-08-01T18:36:44.127Z,25.60
2022-08-01T18:39:18.057Z,25.60
2022-08-01T18:41:52.181Z,25.50
2022-08-01T18:44:26.638Z,25.50
2022-08-01T18:47:03.565Z,25.50
2022-08-01T18:49:37.337Z,25.50
2022-08-01T18:52:13.380Z,25.30
2022-08-01T18:54:47.117Z,25.30
2022-08-01T18:57:20.950Z,25.30
2022-08-01T19:00:03.598Z,25.30
2022-08-01T19:02:37.304Z,25.30
2022-08-01T19:05:11.613Z,25.30
2022-08-01T19:08:06.299Z,25.30
2022-08-01T19:10:43.392Z,25.30
2022-08-01T19:13:41.578Z,25.10
2022-08-01T19:16:19.351Z,25.10
2022-08-01T19:18:54.325Z,25.20
2022-08-01T19:21:28.427Z,25.20
2022-08-01T19:24:23.463Z,25.30
2022-08-01T19:26:58.640Z,25.30
2022-08-01T19:29:41.023Z,25.00
2022-08-01T19:32:14.471Z,25.00
2022-08-01T19:34:52.913Z,25.00
2022-08-01T19:37:27.479Z,25.00
2022-08-01T19:40:03.234Z,25.10
2022-08-01T19:42:36.774Z,25.10
2022-08-01T19:45:10.642Z,25.10
2022-08-01T19:47:51.839Z,25.10
2022-08-01T19:50:32.251Z,25.00
2022-08-01T19:53:08.029Z,24.90
2022-08-01T19:55:47.515Z,24.90
2022-08-01T19:58:27.313Z,24.90
2022-08-01T20:01:02.578Z,24.80
2022-08-01T20:03:39.193Z,24.80
2022-08-01T20:06:12.768Z,24.90
2022-08-01T20:08:54.874Z,24.90
2022-08-01T20:11:30.736Z,24.90
2022-08-01T20:14:04.768Z,24.90
2022-08-01T20:16:39.945Z,24.90
2022-08-01T20:19:13.620Z,24.80
2022-08-01T20:22:03.724Z,24.80
2022-08-01T20:24:46.295Z,24.80
2022-08-01T20:27:22.868Z,24.80
2022-08-01T20:29:57.568Z,24.70
2022-08-01T20:32:34.992Z,24.70
2022-08-01T20:35:09.653Z,24.70
2022-08-01T20:38:05.672Z,24.60
2022-08-01T20:40:41.391Z,24.70
2022-08-01T20:43:17.611Z,24.70
2022-08-01T20:45:51.646Z,24.70
2022-08-01T20:48:25.943Z,24.70
2022-08-01T20:51:15.815Z,24.70
2022-08-01T20:53:54.252Z,24.60
2022-08-01T20:56:49.985Z,24.60
2022-08-01T20:59:39.756Z,24.60
2022-08-01T21:02:40.408Z,24.60
2022-08-01T21:05:16.001Z,24.60
2022-08-01T21:07:55.595Z,24.60
2022-08-01T21:10:30.679Z,24.70
2022-08-01T21:13:07.371Z,24.70
2022-08-01T21:16:11.121Z,24.80
2022-08-01T21:18:58.072Z,24.70
2022-08-01T21:21:39.904Z,24.80
2022-08-01T21:24:21.369Z,24.70
2022-08-01T21:26:55.703Z,24.70
2022-08-01T21:29:33.050Z,24.80
2022-08-01T21:32:17.606Z,24.80
2022-08-01T21:34:51.676Z,24.80
2022-08-01T21:37:25.149Z,24.70
2022-08-01T21:39:58.998Z,24.80
2022-08-01T21:42:33.824Z,24.80
2022-08-01T21:45:08.520Z,24.80
2022-08-01T21:47:44.525Z,24.80
2022-08-01T21:50:18.483Z,24.90
2022-08-01T21:52:58.471Z,24.80
2022-08-01T21:55:48.530Z,24.70
2022-08-01T21:58:36.190Z,24.70
2022-08-01T22:01:15.237Z,24.70
2022-08-01T22:03:51.667Z,24.80
2022-08-01T22:06:27.419Z,24.80
2022-08-01T22:09:04.604Z,24.90
2022-08-01T22:11:58.874Z,24.90
2022-08-01T22:14:37.094Z,24.80
2022-08-01T22:17:11.554Z,24.90
2022-08-01T22:19:51.919Z,24.80
2022-08-01T22:22:50.936Z,24.90
2022-08-01T22:25:23.298Z,24.80
2022-08-01T22:28:09.957Z,24.90
2022-08-01T22:30:46.347Z,24.90
2022-08-01T22:33:20.726Z,25.10
2022-08-01T22:35:58.610Z,25.00
2022-08-01T22:38:32.727Z,25.10
2022-08-01T22:41:07.922Z,25.00
2022-08-01T22:43:48.677Z,24.90
2022-08-01T22:46:29.885Z,24.90
2022-08-01T22:49:11.386Z,25.10
2022-08-01T22:51:56.189Z,25.30
2022-08-01T22:54:39.170Z,25.30
2022-08-01T22:57:24.707Z,25.30
2022-08-01T23:00:04.123Z,25.20
2022-08-01T23:02:40.867Z,25.30
2022-08-01T23:08:18.301Z,25.20
2022-08-01T23:10:52.510Z,25.30
2022-08-01T23:13:26.533Z,25.50
2022-08-01T23:16:00.608Z,25.40
2022-08-01T23:18:44.696Z,25.50
2022-08-01T23:21:22.855Z,25.60
2022-08-01T23:24:00.835Z,25.50
2022-08-01T23:26:36.045Z,25.50
2022-08-01T23:29:09.573Z,25.50
2022-08-01T23:32:00.375Z,25.60
2022-08-01T23:34:37.305Z,25.50
2022-08-01T23:37:11.556Z,25.60
2022-08-01T23:39:47.896Z,25.50
2022-08-01T23:42:22.202Z,25.70
2022-08-01T23:44:57.130Z,25.70
2022-08-01T23:47:31.355Z,25.70
2022-08-01T23:50:05.193Z,25.80
2022-08-01T23:52:48.298Z,25.80
2022-08-01T23:55:36.973Z,25.80
2022-08-01T23:58:11.606Z,25.90
